Time;durP1;ratioP1;P1;durP2;ratioP2;P2;SDS_P1;SDS_P2;PMS_P1;PMS_P2;Temp;Humidity;BMP_temperature;BMP_pressure;BME280_temperature;BME280_humidity;BME280_pressure;Samples;Min_cycle;Max_cycle;Signal;HPM_P1;HPM_P2
2023/06/18 00:01:04;;;;;;;9.68;5.78;;;27.30;57.60;;;;;;5056965;28;20032;-73
2023/06/18 00:03:30;;;;;;;12.05;5.30;;;27.20;57.60;;;;;;5034188;28;20025;-72
2023/06/18 00:05:56;;;;;;;5.95;4.47;;;27.20;57.60;;;;;;5040189;28;20682;-72
2023/06/18 00:08:23;;;;;;;12.25;5.55;;;27.20;57.70;;;;;;5073614;28;20077;-72
2023/06/18 00:10:49;;;;;;;11.27;5.38;;;27.20;57.70;;;;;;5036537;28;20033;-72
2023/06/18 00:13:16;;;;;;;6.35;4.40;;;27.20;57.70;;;;;;5033278;28;20048;-73
2023/06/18 00:15:42;;;;;;;11.45;5.82;;;27.20;57.80;;;;;;5065364;28;20078;-72
2023/06/18 00:18:08;;;;;;;7.32;6.10;;;27.20;57.80;;;;;;5052515;28;20039;-73
2023/06/18 00:20:34;;;;;;;7.40;4.68;;;27.30;57.80;;;;;;5051944;28;20041;-72
2023/06/18 00:23:00;;;;;;;10.93;5.55;;;27.20;57.80;;;;;;5032845;28;20076;-72
2023/06/18 00:25:27;;;;;;;10.18;6.07;;;27.20;57.80;;;;;;5045119;28;20462;-72
2023/06/18 00:27:53;;;;;;;9.93;6.00;;;27.30;57.80;;;;;;5069260;28;20109;-72
2023/06/18 00:30:19;;;;;;;8.82;5.88;;;27.10;57.90;;;;;;5065501;28;20078;-72
2023/06/18 00:32:45;;;;;;;8.63;6.80;;;27.10;57.80;;;;;;5066597;28;20032;-72
2023/06/18 00:35:14;;;;;;;10.73;4.78;;;27.10;57.90;;;;;;5070584;28;20036;-72
2023/06/18 00:37:43;;;;;;;9.80;5.22;;;27.20;57.90;;;;;;5072954;28;20060;-72
2023/06/18 00:40:13;;;;;;;8.45;5.50;;;27.30;57.90;;;;;;5055346;28;20468;-72
2023/06/18 00:42:42;;;;;;;6.82;3.95;;;27.20;57.90;;;;;;5033804;28;20224;-72
2023/06/18 00:45:09;;;;;;;8.18;5.70;;;27.20;57.90;;;;;;5061018;28;20047;-71
2023/06/18 00:47:44;;;;;;;10.07;5.18;;;27.30;57.90;;;;;;5053735;28;20041;-72
2023/06/18 00:50:16;;;;;;;8.80;4.90;;;27.20;57.90;;;;;;5033408;28;20481;-72
2023/06/18 00:52:47;;;;;;;12.60;6.00;;;27.30;57.90;;;;;;5033472;28;20041;-72
2023/06/18 00:55:17;;;;;;;9.80;4.90;;;27.30;57.90;;;;;;5044804;28;20278;-72
2023/06/18 00:57:49;;;;;;;6.38;4.97;;;27.10;57.90;;;;;;5067108;28;20036;-72
2023/06/18 01:00:22;;;;;;;7.68;5.15;;;27.10;57.90;;;;;;5063536;28;20043;-72
2023/06/18 01:02:49;;;;;;;9.93;4.72;;;27.20;57.90;;;;;;5068304;28;20112;-72
2023/06/18 01:05:16;;;;;;;7.63;5.40;;;27.20;57.90;;;;;;5069493;28;20519;-72
2023/06/18 01:07:42;;;;;;;8.75;5.18;;;27.20;58.00;;;;;;5070183;28;20047;-71
2023/06/18 01:10:11;;;;;;;8.35;5.90;;;27.00;58.00;;;;;;5039301;28;20041;-72
2023/06/18 01:12:37;;;;;;;7.78;5.15;;;27.00;58.10;;;;;;5052480;28;20029;-72
2023/06/18 01:15:03;;;;;;;10.68;5.57;;;27.00;58.10;;;;;;5036866;28;20029;-72
2023/06/18 01:17:33;;;;;;;6.93;4.80;;;27.10;58.10;;;;;;5068246;28;20044;-72
2023/06/18 01:20:09;;;;;;;6.97;4.95;;;27.00;58.10;;;;;;5070876;28;20460;-72
2023/06/18 01:22:46;;;;;;;13.02;5.15;;;27.00;58.20;;;;;;5071325;28;20044;-72
2023/06/18 01:25:13;;;;;;;6.35;4.25;;;27.20;58.20;;;;;;5042832;28;20515;-71
2023/06/18 01:27:40;;;;;;;7.75;5.38;;;27.10;58.20;;;;;;5049884;28;20028;-72
2023/06/18 01:30:11;;;;;;;8.43;5.45;;;27.20;58.20;;;;;;5063233;28;20036;-72
2023/06/18 01:32:38;;;;;;;9.70;4.72;;;27.10;58.20;;;;;;5047531;28;20032;-72
2023/06/18 01:35:14;;;;;;;7.78;4.90;;;27.20;58.20;;;;;;5070844;28;20036;-72
2023/06/18 01:38:02;;;;;;;9.68;5.68;;;27.10;58.20;;;;;;5047367;28;20071;-72
2023/06/18 01:40:43;;;;;;;7.85;5.03;;;27.10;58.30;;;;;;5045270;28;20047;-71
2023/06/18 01:43:33;;;;;;;7.63;4.97;;;27.10;58.30;;;;;;5051218;28;20041;-72
2023/06/18 01:46:08;;;;;;;10.80;5.75;;;27.00;58.30;;;;;;5043791;28;20523;-72
2023/06/18 01:48:48;;;;;;;6.47;4.05;;;27.20;58.30;;;;;;5070506;28;20050;-72
2023/06/18 01:51:18;;;;;;;7.57;5.45;;;27.20;58.30;;;;;;5069852;28;20064;-72
2023/06/18 01:53:45;;;;;;;7.43;4.82;;;27.10;58.20;;;;;;5063316;28;20067;-72
2023/06/18 01:56:13;;;;;;;10.13;5.78;;;27.00;58.30;;;;;;5050457;28;20037;-71
2023/06/18 01:58:43;;;;;;;8.82;5.50;;;27.10;58.30;;;;;;5052257;28;20116;-72
2023/06/18 02:01:11;;;;;;;8.52;5.70;;;27.00;58.30;;;;;;5062964;28;20052;-72
2023/06/18 02:03:38;;;;;;;8.52;6.15;;;27.00;58.30;;;;;;5071228;28;20468;-72
2023/06/18 02:06:04;;;;;;;8.73;5.78;;;27.00;58.30;;;;;;5069996;28;20032;-72
2023/06/18 02:08:30;;;;;;;8.95;5.65;;;27.00;58.30;;;;;;5064243;28;20037;-72
2023/06/18 02:10:56;;;;;;;8.90;5.82;;;26.90;57.80;;;;;;5051287;28;20040;-72
2023/06/18 02:13:22;;;;;;;8.40;6.20;;;27.00;58.40;;;;;;5049001;28;20051;-72
2023/06/18 02:15:48;;;;;;;10.43;5.70;;;27.00;58.50;;;;;;5065957;28;20035;-72
2023/06/18 02:18:15;;;;;;;9.32;5.88;;;27.00;58.50;;;;;;5053564;28;20035;-71
2023/06/18 02:20:41;;;;;;;13.05;6.80;;;27.00;58.50;;;;;;5068973;28;20043;-71
2023/06/18 02:23:09;;;;;;;9.13;5.20;;;27.00;58.50;;;;;;5068446;28;20083;-72
2023/06/18 02:25:35;;;;;;;6.03;4.82;;;27.00;58.50;;;;;;5048001;28;20131;-72
2023/06/18 02:28:05;;;;;;;10.48;5.03;;;27.00;58.50;;;;;;5031837;28;20128;-71
2023/06/18 02:30:31;;;;;;;13.23;7.50;;;26.90;58.00;;;;;;5061551;28;20086;-72
2023/06/18 02:33:02;;;;;;;12.90;6.13;;;27.00;58.60;;;;;;5086822;28;20533;-71
2023/06/18 02:35:29;;;;;;;12.52;7.53;;;27.00;58.60;;;;;;5093000;28;20575;-72
2023/06/18 02:37:56;;;;;;;16.77;6.75;;;27.00;58.60;;;;;;5076175;28;20263;-71
2023/06/18 02:40:22;;;;;;;9.00;6.28;;;27.00;58.60;;;;;;5072445;28;20060;-72
2023/06/18 02:42:48;;;;;;;7.35;5.22;;;26.90;58.10;;;;;;5053867;28;20037;-72
2023/06/18 02:45:23;;;;;;;9.15;5.75;;;27.00;58.60;;;;;;5084828;28;20515;-72
2023/06/18 02:47:51;;;;;;;8.38;5.75;;;27.00;58.60;;;;;;5092898;28;20043;-72
2023/06/18 02:50:18;;;;;;;9.90;6.70;;;27.00;58.60;;;;;;5092680;28;20036;-72
2023/06/18 02:52:45;;;;;;;7.93;5.90;;;27.00;58.60;;;;;;5058224;28;20067;-72
2023/06/18 02:55:12;;;;;;;11.35;7.35;;;26.90;58.10;;;;;;5036670;28;20044;-72
2023/06/18 02:57:39;;;;;;;11.82;6.97;;;27.00;58.60;;;;;;5033933;28;20049;-72
2023/06/18 03:00:11;;;;;;;9.13;6.50;;;27.00;58.60;;;;;;5066739;28;20047;-72
2023/06/18 03:02:39;;;;;;;11.45;7.40;;;26.90;58.10;;;;;;5065488;28;20079;-72
2023/06/18 03:05:08;;;;;;;11.30;7.20;;;26.80;58.00;;;;;;5049486;28;20038;-72
2023/06/18 03:07:35;;;;;;;10.45;7.32;;;26.90;58.10;;;;;;5072855;28;20052;-72
2023/06/18 03:10:02;;;;;;;10.57;7.05;;;26.90;58.10;;;;;;5051632;28;20037;-72
2023/06/18 03:12:30;;;;;;;10.15;6.75;;;26.90;58.20;;;;;;5053608;28;20057;-72
2023/06/18 03:14:59;;;;;;;13.10;6.90;;;26.90;58.20;;;;;;5035345;28;20045;-72
2023/06/18 03:17:27;;;;;;;10.15;6.65;;;26.80;58.30;;;;;;5015811;28;20049;-72
2023/06/18 03:19:53;;;;;;;17.80;8.13;;;26.90;58.30;;;;;;4999305;28;20041;-72
2023/06/18 03:22:21;;;;;;;11.75;7.55;;;26.90;58.30;;;;;;5015545;28;20089;-72
2023/06/18 03:24:49;;;;;;;12.00;7.65;;;27.00;58.90;;;;;;5050726;28;20134;-72
2023/06/18 03:27:16;;;;;;;12.23;7.80;;;27.00;58.90;;;;;;5035454;28;20159;-72
2023/06/18 03:29:43;;;;;;;13.80;7.93;;;27.00;58.90;;;;;;5023851;28;20052;-72
2023/06/18 03:32:10;;;;;;;11.52;7.50;;;26.90;58.40;;;;;;5028770;28;20539;-72
2023/06/18 03:34:38;;;;;;;10.73;7.07;;;26.90;58.40;;;;;;5015587;28;20045;-72
2023/06/18 03:37:06;;;;;;;14.27;7.93;;;27.00;58.90;;;;;;5030520;28;20048;-72
2023/06/18 03:39:33;;;;;;;15.35;7.55;;;27.00;58.90;;;;;;5016643;28;20425;-72
2023/06/18 03:42:00;;;;;;;14.95;7.70;;;27.00;58.90;;;;;;5034083;28;20040;-72
2023/06/18 03:44:26;;;;;;;14.60;7.40;;;26.90;58.30;;;;;;5015640;28;20037;-72
2023/06/18 03:46:53;;;;;;;10.65;7.20;;;27.10;58.90;;;;;;5056028;28;20049;-72
2023/06/18 03:49:19;;;;;;;12.45;7.30;;;27.00;58.90;;;;;;5069988;28;20044;-71
2023/06/18 03:51:45;;;;;;;9.52;6.88;;;26.80;58.30;;;;;;5039752;28;20056;-71
2023/06/18 03:54:12;;;;;;;11.05;7.88;;;27.00;58.90;;;;;;5051092;28;20116;-71
2023/06/18 03:56:38;;;;;;;10.77;7.50;;;26.80;58.30;;;;;;5053641;28;20167;-72
2023/06/18 03:59:06;;;;;;;8.88;6.47;;;26.80;58.30;;;;;;5055302;28;20040;-72
2023/06/18 04:01:33;;;;;;;15.00;8.00;;;26.80;58.30;;;;;;5063402;28;20024;-72
2023/06/18 04:03:59;;;;;;;12.13;8.18;;;26.80;58.30;;;;;;5072330;28;20448;-71
2023/06/18 04:06:27;;;;;;;11.25;7.72;;;26.80;58.40;;;;;;5062760;28;20048;-72
2023/06/18 04:08:53;;;;;;;12.20;8.85;;;26.80;58.40;;;;;;5051729;28;20041;-71
2023/06/18 04:11:19;;;;;;;14.25;8.40;;;26.80;58.50;;;;;;5065090;28;20036;-72
2023/06/18 04:13:45;;;;;;;10.10;7.57;;;26.90;58.50;;;;;;5036215;28;20061;-72
2023/06/18 04:16:14;;;;;;;14.63;8.38;;;26.80;58.50;;;;;;5067258;28;20037;-71
2023/06/18 04:18:40;;;;;;;12.52;7.68;;;26.90;58.50;;;;;;5072049;28;20032;-72
2023/06/18 04:21:07;;;;;;;11.70;8.38;;;26.80;58.50;;;;;;5072218;28;20358;-72
2023/06/18 04:23:35;;;;;;;13.90;8.88;;;27.00;59.10;;;;;;5055007;28;20099;-71
2023/06/18 04:26:01;;;;;;;15.30;8.75;;;27.00;59.10;;;;;;5058911;28;20207;-72
2023/06/18 04:28:27;;;;;;;10.93;8.00;;;27.00;59.20;;;;;;5067983;28;20479;-72
2023/06/18 04:30:53;;;;;;;13.20;8.35;;;27.00;59.20;;;;;;5065010;28;20031;-72
2023/06/18 04:33:21;;;;;;;15.15;8.40;;;26.80;58.60;;;;;;5069510;28;20052;-72
2023/06/18 04:35:47;;;;;;;13.38;7.97;;;26.80;58.60;;;;;;5070783;28;20140;-72
2023/06/18 04:38:13;;;;;;;11.23;7.50;;;26.90;58.50;;;;;;5062235;28;20053;-72
2023/06/18 04:40:42;;;;;;;11.25;7.60;;;26.80;58.50;;;;;;5047266;28;20037;-71
2023/06/18 04:43:08;;;;;;;9.93;6.32;;;26.80;58.60;;;;;;5034971;28;20045;-72
2023/06/18 04:45:38;;;;;;;9.63;5.57;;;26.90;58.60;;;;;;5051828;28;20064;-71
2023/06/18 04:48:05;;;;;;;10.75;8.18;;;26.90;58.50;;;;;;5071707;28;20024;-72
2023/06/18 04:50:33;;;;;;;10.55;7.22;;;26.80;58.50;;;;;;5033926;28;20034;-72
2023/06/18 04:53:00;;;;;;;10.15;7.72;;;26.90;58.50;;;;;;5040690;28;20386;-72
2023/06/18 04:55:27;;;;;;;11.68;7.65;;;26.80;58.50;;;;;;5036804;28;20127;-72
2023/06/18 04:57:55;;;;;;;8.80;7.13;;;26.80;58.50;;;;;;5034461;28;20079;-71
2023/06/18 05:00:22;;;;;;;11.25;7.32;;;26.80;58.60;;;;;;5036963;28;20033;-72
2023/06/18 05:02:51;;;;;;;10.13;7.40;;;26.80;58.70;;;;;;5043276;28;20036;-72
2023/06/18 05:05:18;;;;;;;12.63;8.02;;;26.80;58.70;;;;;;5032699;28;20120;-71
2023/06/18 05:07:44;;;;;;;14.15;8.00;;;26.80;58.70;;;;;;5039622;28;20033;-71
2023/06/18 05:10:10;;;;;;;12.80;7.85;;;26.80;58.70;;;;;;5042634;28;20100;-72
2023/06/18 05:12:38;;;;;;;11.75;8.13;;;26.90;58.70;;;;;;5030559;28;20041;-72
2023/06/18 05:15:05;;;;;;;12.90;8.70;;;26.80;58.80;;;;;;5037471;28;20021;-71
2023/06/18 05:17:31;;;;;;;11.98;8.35;;;26.80;58.80;;;;;;5036073;28;20104;-72
2023/06/18 05:19:57;;;;;;;12.95;7.57;;;26.90;58.80;;;;;;5031072;28;20466;-71
2023/06/18 05:22:23;;;;;;;20.08;7.65;;;26.90;58.70;;;;;;5047304;28;20060;-72
2023/06/18 05:24:49;;;;;;;13.93;7.93;;;26.80;58.80;;;;;;5032543;28;20057;-71
2023/06/18 05:27:16;;;;;;;11.27;7.28;;;26.90;58.70;;;;;;5034294;28;20029;-72
2023/06/18 05:29:42;;;;;;;13.27;8.15;;;26.90;58.70;;;;;;5050491;28;20116;-71
2023/06/18 05:32:09;;;;;;;13.65;8.23;;;26.80;58.70;;;;;;5049795;28;20484;-71
2023/06/18 05:34:35;;;;;;;12.40;7.80;;;26.80;58.70;;;;;;5050211;28;20033;-71
2023/06/18 05:37:02;;;;;;;12.65;7.70;;;26.80;58.70;;;;;;5051656;28;20063;-72
2023/06/18 05:39:28;;;;;;;15.32;7.75;;;26.80;58.70;;;;;;5049089;28;20129;-71
2023/06/18 05:41:55;;;;;;;12.68;8.63;;;26.80;58.70;;;;;;5049383;28;20527;-71
2023/06/18 05:44:23;;;;;;;7.22;5.22;;;26.90;58.70;;;;;;5050119;28;20048;-73
2023/06/18 05:46:49;;;;;;;5.57;3.60;;;26.80;58.60;;;;;;5050283;28;20041;-75
2023/06/18 05:49:16;;;;;;;7.88;4.93;;;26.80;58.60;;;;;;5017428;28;20061;-75
2023/06/18 05:51:45;;;;;;;5.00;4.10;;;26.60;58.70;;;;;;5033446;28;20032;-75
2023/06/18 05:54:11;;;;;;;7.30;4.63;;;26.70;59.50;;;;;;5036398;28;20045;-72
2023/06/18 05:56:37;;;;;;;5.03;3.95;;;26.80;59.20;;;;;;5031825;28;20053;-73
2023/06/18 05:59:03;;;;;;;5.25;4.07;;;26.80;60.00;;;;;;5048537;28;20049;-72
2023/06/18 06:01:36;;;;;;;7.68;5.45;;;26.80;60.80;;;;;;5031780;28;20048;-72
2023/06/18 06:04:03;;;;;;;8.10;5.78;;;27.00;61.30;;;;;;5032012;28;20041;-71
2023/06/18 06:06:29;;;;;;;10.48;5.50;;;27.00;62.80;;;;;;5031707;28;20098;-73
2023/06/18 06:08:55;;;;;;;11.68;6.80;;;27.00;62.50;;;;;;5058377;28;20045;-71
2023/06/18 06:11:22;;;;;;;10.65;6.80;;;27.30;63.40;;;;;;5035509;28;20725;-73
2023/06/18 06:13:48;;;;;;;10.07;8.10;;;27.10;64.40;;;;;;5052359;28;20036;-74
2023/06/18 06:16:17;;;;;;;12.45;7.50;;;27.20;60.90;;;;;;5035440;28;20040;-74
2023/06/18 06:18:43;;;;;;;9.88;7.55;;;27.00;60.10;;;;;;5051941;28;20040;-73
2023/06/18 06:21:11;;;;;;;9.68;6.38;;;27.30;59.70;;;;;;5052137;28;20048;-75
2023/06/18 06:23:37;;;;;;;9.32;6.13;;;27.10;60.10;;;;;;5010386;28;20123;-75
2023/06/18 06:26:04;;;;;;;10.02;6.32;;;27.10;59.30;;;;;;5003722;28;20510;-75
2023/06/18 06:28:31;;;;;;;11.00;6.65;;;27.30;59.50;;;;;;5008864;28;20133;-76
2023/06/18 06:30:57;;;;;;;9.23;6.22;;;27.20;59.80;;;;;;5008669;28;20046;-75
2023/06/18 06:33:23;;;;;;;13.88;7.57;;;27.10;59.50;;;;;;4986198;28;20046;-75
2023/06/18 06:35:50;;;;;;;10.35;6.82;;;27.10;59.90;;;;;;5008942;28;20490;-74
2023/06/18 06:38:17;;;;;;;13.48;7.60;;;27.10;59.50;;;;;;4990869;28;20034;-75
2023/06/18 06:40:43;;;;;;;15.63;8.25;;;27.10;59.10;;;;;;5005415;28;20053;-75
2023/06/18 06:43:09;;;;;;;7.95;6.03;;;27.00;59.00;;;;;;5010815;28;20058;-75
2023/06/18 06:45:58;;;;;;;10.90;7.43;;;27.10;59.10;;;;;;4988770;28;20724;-75
2023/06/18 06:48:50;;;;;;;9.63;6.18;;;27.10;58.90;;;;;;4969774;28;20073;-75
2023/06/18 06:51:36;;;;;;;10.07;6.70;;;27.00;58.80;;;;;;4968243;28;20050;-74
2023/06/18 06:54:11;;;;;;;8.32;6.10;;;27.00;58.60;;;;;;4981664;28;20076;-75
2023/06/18 06:56:37;;;;;;;13.07;7.65;;;27.20;58.60;;;;;;5002347;28;20109;-75
2023/06/18 06:59:04;;;;;;;11.48;6.80;;;27.10;58.20;;;;;;5011994;28;20033;-74
2023/06/18 07:01:30;;;;;;;10.18;6.18;;;27.10;58.10;;;;;;5017928;28;20025;-74
2023/06/18 07:03:56;;;;;;;9.27;6.30;;;27.10;58.10;;;;;;5030116;28;20036;-73
2023/06/18 07:06:22;;;;;;;8.90;6.55;;;27.20;58.00;;;;;;5046972;28;20053;-76
2023/06/18 07:08:50;;;;;;;9.90;7.10;;;27.20;58.10;;;;;;5047279;28;20368;-75
2023/06/18 07:11:16;;;;;;;10.98;6.35;;;27.10;57.90;;;;;;5048816;28;20032;-76
2023/06/18 07:13:42;;;;;;;11.48;8.02;;;27.10;57.90;;;;;;5049190;28;20033;-78
2023/06/18 07:16:08;;;;;;;8.93;6.05;;;27.10;57.70;;;;;;5049864;28;20492;-79
2023/06/18 07:18:34;;;;;;;7.38;6.00;;;27.20;57.80;;;;;;5033408;28;20480;-76
2023/06/18 07:21:00;;;;;;;9.80;6.05;;;27.20;58.60;;;;;;5050595;28;20112;-74
2023/06/18 07:23:26;;;;;;;9.80;6.38;;;27.20;58.20;;;;;;5050420;28;20047;-74
2023/06/18 07:25:52;;;;;;;12.63;6.53;;;27.20;58.40;;;;;;5053481;28;20049;-74
2023/06/18 07:28:18;;;;;;;10.07;6.60;;;27.10;58.50;;;;;;5052113;28;20039;-74
2023/06/18 07:30:44;;;;;;;10.88;7.30;;;27.30;58.50;;;;;;5054796;28;20037;-75
2023/06/18 07:33:10;;;;;;;9.80;7.00;;;27.10;58.60;;;;;;5051452;28;20044;-74
2023/06/18 07:35:36;;;;;;;9.57;7.15;;;27.00;58.80;;;;;;5034962;28;20052;-74
2023/06/18 07:38:02;;;;;;;11.52;7.95;;;27.10;58.70;;;;;;5032360;28;20049;-76
2023/06/18 07:40:32;;;;;;;13.13;7.45;;;27.10;58.60;;;;;;5035681;28;20060;-77
2023/06/18 07:42:59;;;;;;;11.40;7.20;;;27.10;58.70;;;;;;5036850;28;20552;-78
2023/06/18 07:45:25;;;;;;;10.60;6.75;;;27.10;58.70;;;;;;5020695;28;20135;-76
2023/06/18 07:47:51;;;;;;;7.72;6.45;;;27.00;58.40;;;;;;5049574;28;20469;-76
2023/06/18 07:50:17;;;;;;;15.77;8.32;;;27.10;58.40;;;;;;5032279;28;20064;-77
2023/06/18 07:52:43;;;;;;;10.10;6.93;;;27.10;58.10;;;;;;5032195;28;20212;-73
2023/06/18 07:55:09;;;;;;;13.80;9.13;;;27.10;58.10;;;;;;5032019;28;20221;-73
2023/06/18 07:57:35;;;;;;;11.32;7.70;;;27.10;58.20;;;;;;5031485;28;20057;-73
2023/06/18 08:00:01;;;;;;;9.65;6.45;;;27.10;58.20;;;;;;5031840;28;20489;-73
2023/06/18 08:02:28;;;;;;;11.20;7.07;;;27.20;58.20;;;;;;5038677;28;20045;-73
2023/06/18 08:04:55;;;;;;;10.93;6.97;;;27.10;58.20;;;;;;5031414;28;20045;-73
2023/06/18 08:07:20;;;;;;;8.65;6.63;;;27.20;58.10;;;;;;5020272;28;20036;-73
2023/06/18 08:09:46;;;;;;;8.90;5.97;;;27.30;58.10;;;;;;5042110;28;20038;-73
2023/06/18 08:12:13;;;;;;;7.07;5.75;;;27.10;58.10;;;;;;5031339;28;20505;-73
2023/06/18 08:14:38;;;;;;;8.65;6.63;;;27.30;58.00;;;;;;5027735;28;20125;-73
2023/06/18 08:17:05;;;;;;;11.02;6.47;;;27.30;58.00;;;;;;5033623;28;20116;-73
2023/06/18 08:19:30;;;;;;;10.57;6.75;;;27.30;58.00;;;;;;5044387;28;20146;-73
2023/06/18 08:21:56;;;;;;;14.60;7.80;;;27.20;58.00;;;;;;5053492;28;20107;-73
2023/06/18 08:24:23;;;;;;;8.98;6.53;;;27.20;57.90;;;;;;5049190;28;20025;-73
2023/06/18 08:26:49;;;;;;;8.40;5.53;;;27.20;57.80;;;;;;5033219;28;20029;-73
2023/06/18 08:29:14;;;;;;;11.77;6.05;;;27.30;57.90;;;;;;5033470;28;20029;-73
2023/06/18 08:31:42;;;;;;;10.48;6.00;;;27.30;57.90;;;;;;5037864;28;20449;-73
2023/06/18 08:34:08;;;;;;;10.13;6.57;;;27.30;57.90;;;;;;5049959;28;20084;-73
2023/06/18 08:36:34;;;;;;;10.68;5.70;;;27.30;57.90;;;;;;5051802;28;20060;-73
2023/06/18 08:39:00;;;;;;;6.40;5.13;;;27.30;57.90;;;;;;5053452;28;20032;-73
2023/06/18 08:41:27;;;;;;;7.45;5.93;;;27.20;57.90;;;;;;5049766;28;20420;-73
2023/06/18 08:43:54;;;;;;;5.97;5.38;;;27.10;57.90;;;;;;5053448;28;20033;-73
2023/06/18 08:46:21;;;;;;;8.82;5.28;;;27.20;57.90;;;;;;5052785;28;20040;-73
2023/06/18 08:48:58;;;;;;;10.63;6.70;;;27.20;57.90;;;;;;5053390;28;20061;-73
2023/06/18 08:51:25;;;;;;;11.57;5.78;;;27.10;57.90;;;;;;5050766;28;20048;-73
2023/06/18 08:53:57;;;;;;;7.43;5.43;;;27.10;57.90;;;;;;5052929;28;20559;-73
2023/06/18 08:56:24;;;;;;;11.35;5.90;;;27.20;58.00;;;;;;5051211;28;20060;-73
2023/06/18 08:58:53;;;;;;;10.35;5.55;;;27.20;58.10;;;;;;5053320;28;20492;-73
2023/06/18 09:01:19;;;;;;;7.50;5.40;;;27.00;58.10;;;;;;5052879;28;20475;-74
2023/06/18 09:03:46;;;;;;;8.13;5.22;;;27.00;58.00;;;;;;5051834;28;20021;-73
2023/06/18 09:06:12;;;;;;;10.30;6.20;;;27.20;58.00;;;;;;5051435;28;20041;-73
2023/06/18 09:08:39;;;;;;;10.18;6.00;;;27.10;58.10;;;;;;5050579;28;20029;-73
2023/06/18 09:11:06;;;;;;;8.88;5.40;;;27.20;58.10;;;;;;5050606;28;20061;-74
2023/06/18 09:13:33;;;;;;;9.20;6.35;;;27.20;58.10;;;;;;5048457;28;20082;-73
2023/06/18 09:16:02;;;;;;;9.25;6.20;;;27.20;58.10;;;;;;5051106;28;20063;-73
2023/06/18 09:18:29;;;;;;;5.82;5.18;;;27.10;58.10;;;;;;5041848;28;20501;-73
2023/06/18 09:20:55;;;;;;;7.88;5.40;;;27.20;58.10;;;;;;5030165;28;20448;-73
2023/06/18 09:23:21;;;;;;;9.73;5.45;;;27.20;58.00;;;;;;5029982;28;20049;-73
2023/06/18 09:25:55;;;;;;;7.45;5.50;;;27.20;58.10;;;;;;5034999;28;20049;-73
2023/06/18 09:28:22;;;;;;;8.48;5.30;;;27.20;58.00;;;;;;5050017;28;20128;-73
2023/06/18 09:30:58;;;;;;;8.63;5.55;;;27.00;58.00;;;;;;5048082;28;20025;-73
2023/06/18 09:33:32;;;;;;;6.38;5.18;;;27.00;58.00;;;;;;5048177;28;20087;-73
2023/06/18 09:35:59;;;;;;;7.93;5.32;;;27.00;58.00;;;;;;5050006;28;20037;-73
2023/06/18 09:38:39;;;;;;;8.75;5.35;;;27.10;58.00;;;;;;5049853;28;20505;-73
2023/06/18 09:41:22;;;;;;;7.03;4.78;;;27.00;58.00;;;;;;5048181;28;20043;-73
2023/06/18 09:43:49;;;;;;;7.80;5.15;;;27.20;58.00;;;;;;5049249;28;20052;-73
2023/06/18 09:46:16;;;;;;;9.15;4.75;;;27.00;58.00;;;;;;5049407;28;20079;-73
2023/06/18 09:48:46;;;;;;;9.75;5.18;;;27.10;58.10;;;;;;5017280;28;20053;-73
2023/06/18 09:51:17;;;;;;;10.93;5.13;;;26.90;57.60;;;;;;5049703;28;20112;-73
2023/06/18 09:53:54;;;;;;;7.35;5.90;;;26.90;57.60;;;;;;5050451;28;20338;-73
2023/06/18 09:56:20;;;;;;;8.40;6.40;;;26.90;57.60;;;;;;5048634;28;20060;-73
2023/06/18 09:58:47;;;;;;;7.82;5.15;;;27.10;58.20;;;;;;5051783;28;20025;-73
2023/06/18 10:01:19;;;;;;;6.75;4.95;;;26.90;57.60;;;;;;5025728;28;20030;-73
2023/06/18 10:03:46;;;;;;;6.03;4.57;;;27.00;58.20;;;;;;5030629;28;20033;-73
2023/06/18 10:06:20;;;;;;;7.43;5.97;;;26.90;57.70;;;;;;5031672;28;20038;-73
2023/06/18 10:08:51;;;;;;;8.38;4.78;;;27.00;58.20;;;;;;5030560;28;20034;-74
2023/06/18 10:11:19;;;;;;;6.93;5.05;;;27.00;58.30;;;;;;5047110;28;20414;-73
2023/06/18 10:13:52;;;;;;;7.30;5.32;;;27.00;58.30;;;;;;5031613;28;20388;-73
2023/06/18 10:16:20;;;;;;;9.05;5.88;;;27.00;58.30;;;;;;5046933;28;20029;-73
2023/06/18 10:19:11;;;;;;;7.90;5.80;;;27.00;58.30;;;;;;5031685;28;20033;-73
2023/06/18 10:21:46;;;;;;;6.57;5.88;;;27.00;58.30;;;;;;5051367;28;20162;-72
2023/06/18 10:24:27;;;;;;;9.48;6.50;;;27.00;58.80;;;;;;5046407;28;20033;-73
2023/06/18 10:26:55;;;;;;;9.25;6.47;;;27.00;58.80;;;;;;5037275;28;20108;-73
2023/06/18 10:29:22;;;;;;;11.77;6.88;;;27.10;58.50;;;;;;5048420;28;20037;-73
2023/06/18 10:31:49;;;;;;;10.00;6.07;;;27.00;59.10;;;;;;5043922;28;20507;-75
2023/06/18 10:34:16;;;;;;;8.45;6.63;;;26.90;58.10;;;;;;5051177;28;20504;-75
2023/06/18 10:36:43;;;;;;;9.07;6.80;;;27.00;59.20;;;;;;5035701;28;20034;-75
2023/06/18 10:39:10;;;;;;;13.45;8.25;;;27.10;59.90;;;;;;5030940;28;20064;-75
2023/06/18 10:41:36;;;;;;;12.13;7.18;;;27.20;60.50;;;;;;5031270;28;20030;-73
2023/06/18 10:44:02;;;;;;;5.95;4.97;;;27.40;61.70;;;;;;5031246;28;20045;-75
2023/06/18 10:46:33;;;;;;;9.07;6.03;;;27.30;62.40;;;;;;5044406;28;20045;-74
2023/06/18 10:49:16;;;;;;;8.68;4.40;;;27.50;62.30;;;;;;5048268;28;20045;-74
2023/06/18 10:51:58;;;;;;;16.42;5.32;;;27.60;63.10;;;;;;5039957;28;20495;-73
2023/06/18 10:54:29;;;;;;;13.55;6.38;;;27.60;61.40;;;;;;5032919;28;20124;-72
2023/06/18 10:56:57;;;;;;;11.63;5.32;;;27.70;60.90;;;;;;5034772;28;20052;-75
2023/06/18 10:59:41;;;;;;;5.35;3.33;;;27.80;60.00;;;;;;5055319;28;20468;-76
2023/06/18 11:02:07;;;;;;;7.70;5.43;;;27.60;59.80;;;;;;5035940;28;20052;-79
2023/06/18 11:04:34;;;;;;;9.35;5.43;;;27.80;60.20;;;;;;5055416;28;20021;-74
2023/06/18 11:07:27;;;;;;;12.30;5.88;;;27.80;60.60;;;;;;5051155;28;20127;-74
2023/06/18 11:09:58;;;;;;;14.85;5.95;;;28.00;60.70;;;;;;5058034;28;20035;-74
2023/06/18 11:12:27;;;;;;;13.23;5.20;;;27.80;59.60;;;;;;5059484;28;20475;-76
2023/06/18 11:15:17;;;;;;;10.95;6.10;;;27.90;59.50;;;;;;5054574;28;20041;-75
2023/06/18 11:17:43;;;;;;;13.77;5.47;;;28.00;60.60;;;;;;5040003;28;20037;-76
2023/06/18 11:20:12;;;;;;;6.47;5.05;;;28.10;59.90;;;;;;5037478;28;20104;-75
2023/06/18 11:22:40;;;;;;;9.27;6.03;;;28.10;60.40;;;;;;5052353;28;20045;-75
2023/06/18 11:25:10;;;;;;;5.63;3.83;;;28.20;60.10;;;;;;5043020;28;20129;-74
2023/06/18 11:27:40;;;;;;;9.82;6.05;;;28.10;59.50;;;;;;5058055;28;20151;-79
2023/06/18 11:30:09;;;;;;;6.57;5.35;;;28.10;58.90;;;;;;5044760;28;20037;-79
2023/06/18 11:32:35;;;;;;;9.50;5.82;;;28.20;58.90;;;;;;5054984;28;20099;-77
2023/06/18 11:35:01;;;;;;;10.32;6.40;;;28.10;58.90;;;;;;5062413;28;20059;-77
2023/06/18 11:37:30;;;;;;;6.53;5.43;;;28.10;58.80;;;;;;5043225;28;20481;-78
2023/06/18 11:39:56;;;;;;;7.00;5.80;;;28.20;58.70;;;;;;5060024;28;20119;-75
2023/06/18 11:42:26;;;;;;;8.05;5.15;;;28.20;58.60;;;;;;5073867;28;20395;-75
2023/06/18 11:44:54;;;;;;;7.15;5.10;;;28.20;58.60;;;;;;5073939;28;20461;-74
2023/06/18 11:47:20;;;;;;;9.60;6.00;;;28.20;58.60;;;;;;5073815;28;20341;-75
2023/06/18 11:49:49;;;;;;;8.90;5.70;;;28.00;58.80;;;;;;5073600;28;20040;-73
2023/06/18 11:52:26;;;;;;;7.50;6.07;;;28.10;58.90;;;;;;5072311;28;20058;-72
2023/06/18 11:54:54;;;;;;;9.82;4.78;;;28.10;58.90;;;;;;5074006;28;20139;-73
2023/06/18 11:57:22;;;;;;;8.48;5.47;;;28.10;58.90;;;;;;5073227;28;20050;-75
2023/06/18 11:59:53;;;;;;;10.48;5.18;;;28.00;58.80;;;;;;5019551;28;20110;-76
2023/06/18 12:02:27;;;;;;;11.93;5.43;;;28.20;58.80;;;;;;5053313;28;20112;-75
2023/06/18 12:05:05;;;;;;;8.32;5.22;;;28.20;58.90;;;;;;5070630;28;20519;-75
2023/06/18 12:07:31;;;;;;;11.30;4.78;;;28.20;58.90;;;;;;5069862;28;20455;-75
2023/06/18 12:10:06;;;;;;;11.05;5.53;;;28.10;58.90;;;;;;5071131;28;20163;-75
2023/06/18 12:12:50;;;;;;;12.23;5.20;;;28.10;58.90;;;;;;5070941;28;20315;-74
2023/06/18 12:15:22;;;;;;;10.30;5.40;;;28.10;58.90;;;;;;5074412;28;20043;-75
2023/06/18 12:18:05;;;;;;;7.18;5.40;;;28.10;59.00;;;;;;5090887;28;20125;-75
2023/06/18 12:20:31;;;;;;;8.45;4.88;;;28.10;59.00;;;;;;5090900;28;20035;-76
2023/06/18 12:23:01;;;;;;;7.75;4.82;;;28.10;59.00;;;;;;5090793;28;20166;-76
2023/06/18 12:25:28;;;;;;;6.30;4.28;;;28.10;59.00;;;;;;5091331;28;20039;-76
2023/06/18 12:27:56;;;;;;;11.18;4.60;;;28.10;59.00;;;;;;5090361;28;20506;-75
2023/06/18 12:30:39;;;;;;;5.20;4.70;;;28.00;59.10;;;;;;5085255;28;20040;-75
2023/06/18 12:33:12;;;;;;;;;;;28.10;59.10;;;;;;5071198;28;20143;-76
2023/06/18 12:35:44;;;;;;;9.10;4.80;;;28.10;59.10;;;;;;5070543;28;19957;-76
2023/06/18 12:38:10;;;;;;;9.52;4.05;;;28.00;59.00;;;;;;5061039;28;20491;-75
2023/06/18 12:40:46;;;;;;;7.45;4.78;;;28.30;59.00;;;;;;5070136;28;20045;-75
2023/06/18 12:43:13;;;;;;;9.40;4.85;;;28.10;59.00;;;;;;5055387;28;20045;-75
2023/06/18 12:45:41;;;;;;;6.82;4.80;;;28.00;59.00;;;;;;5052779;28;20045;-75
2023/06/18 12:48:15;;;;;;;10.35;5.25;;;28.20;59.00;;;;;;5052610;28;20040;-76
2023/06/18 12:50:43;;;;;;;6.28;4.60;;;28.10;59.00;;;;;;5052743;28;20072;-75